sensor_id;sensor_type;location;lat;lon;timestamp;temperature;humidity
957;DHT22;465;48.802;9.224;2022-09-09T00:02:19;17.00;99.90
957;DHT22;465;48.802;9.224;2022-09-09T00:04:51;16.90;99.90
957;DHT22;465;48.802;9.224;2022-09-09T00:07:24;16.90;99.90
957;DHT22;465;48.802;9.224;2022-09-09T00:09:58;16.90;99.90
957;DHT22;465;48.802;9.224;2022-09-09T00:12:33;16.90;99.90
957;DHT22;465;48.802;9.224;2022-09-09T00:15:05;16.90;99.90
957;DHT22;465;48.802;9.224;2022-09-09T00:17:38;16.90;99.90
957;DHT22;465;48.802;9.224;2022-09-09T00:20:12;16.90;99.90
957;DHT22;465;48.802;9.224;2022-09-09T00:22:42;16.90;99.90
957;DHT22;465;48.802;9.224;2022-09-09T00:25:14;16.90;99.90
957;DHT22;465;48.802;9.224;2022-09-09T00:27:46;16.80;99.90
957;DHT22;465;48.802;9.224;2022-09-09T00:30:15;16.90;99.90
957;DHT22;465;48.802;9.224;2022-09-09T00:32:47;16.80;99.90
957;DHT22;465;48.802;9.224;2022-09-09T00:35:24;16.90;99.90
957;DHT22;465;48.802;9.224;2022-09-09T00:37:53;16.90;99.90
957;DHT22;465;48.802;9.224;2022-09-09T00:40:28;16.90;99.90
957;DHT22;465;48.802;9.224;2022-09-09T00:43:24;16.90;99.90
957;DHT22;465;48.802;9.224;2022-09-09T00:46:21;16.90;99.90
957;DHT22;465;48.802;9.224;2022-09-09T00:48:57;16.90;99.90
957;DHT22;465;48.802;9.224;2022-09-09T00:51:30;17.00;99.90
957;DHT22;465;48.802;9.224;2022-09-09T00:54:15;17.00;99.90
957;DHT22;465;48.802;9.224;2022-09-09T00:56:53;17.00;99.90
957;DHT22;465;48.802;9.224;2022-09-09T00:59:30;17.00;99.90
957;DHT22;465;48.802;9.224;2022-09-09T01:02:02;17.00;99.90
957;DHT22;465;48.802;9.224;2022-09-09T01:04:34;17.00;99.90
957;DHT22;465;48.802;9.224;2022-09-09T01:07:11;17.00;99.90
957;DHT22;465;48.802;9.224;2022-09-09T01:09:50;17.00;99.90
957;DHT22;465;48.802;9.224;2022-09-09T01:12:25;17.00;99.90
957;DHT22;465;48.802;9.224;2022-09-09T01:14:58;17.00;99.90
957;DHT22;465;48.802;9.224;2022-09-09T01:17:31;17.00;99.90
957;DHT22;465;48.802;9.224;2022-09-09T01:20:06;16.90;99.90
957;DHT22;465;48.802;9.224;2022-09-09T01:22:39;16.80;99.90
957;DHT22;465;48.802;9.224;2022-09-09T01:28:27;16.90;99.90
957;DHT22;465;48.802;9.224;2022-09-09T01:30:55;16.90;99.90
957;DHT22;465;48.802;9.224;2022-09-09T01:33:23;16.90;99.90
957;DHT22;465;48.802;9.224;2022-09-09T01:35:54;17.00;99.90
957;DHT22;465;48.802;9.224;2022-09-09T01:38:22;17.00;99.90
957;DHT22;465;48.802;9.224;2022-09-09T01:40:51;16.90;99.90
957;DHT22;465;48.802;9.224;2022-09-09T01:43:18;16.90;99.90
957;DHT22;465;48.802;9.224;2022-09-09T01:45:49;16.90;99.90
957;DHT22;465;48.802;9.224;2022-09-09T01:48:18;16.80;99.90
957;DHT22;465;48.802;9.224;2022-09-09T01:50:45;16.90;99.90
957;DHT22;465;48.802;9.224;2022-09-09T01:53:13;16.90;99.90
957;DHT22;465;48.802;9.224;2022-09-09T01:55:44;16.90;99.90
957;DHT22;465;48.802;9.224;2022-09-09T01:58:22;16.90;99.90
957;DHT22;465;48.802;9.224;2022-09-09T02:01:02;17.00;99.90
957;DHT22;465;48.802;9.224;2022-09-09T02:03:32;16.90;99.90
957;DHT22;465;48.802;9.224;2022-09-09T02:06:10;16.90;99.90
957;DHT22;465;48.802;9.224;2022-09-09T02:08:43;17.00;99.90
957;DHT22;465;48.802;9.224;2022-09-09T02:11:14;16.90;99.90
957;DHT22;465;48.802;9.224;2022-09-09T02:13:43;16.80;99.90
957;DHT22;465;48.802;9.224;2022-09-09T02:16:15;16.90;99.90
957;DHT22;465;48.802;9.224;2022-09-09T02:18:48;16.90;99.90
957;DHT22;465;48.802;9.224;2022-09-09T02:21:18;16.80;99.90
957;DHT22;465;48.802;9.224;2022-09-09T02:23:47;16.80;99.90
957;DHT22;465;48.802;9.224;2022-09-09T02:26:15;16.70;99.90
957;DHT22;465;48.802;9.224;2022-09-09T02:28:45;16.60;99.90
957;DHT22;465;48.802;9.224;2022-09-09T02:31:16;16.60;99.90
957;DHT22;465;48.802;9.224;2022-09-09T02:33:51;16.50;99.90
957;DHT22;465;48.802;9.224;2022-09-09T02:36:19;16.50;99.90
957;DHT22;465;48.802;9.224;2022-09-09T02:38:48;16.60;99.90
957;DHT22;465;48.802;9.224;2022-09-09T02:41:20;16.50;99.90
957;DHT22;465;48.802;9.224;2022-09-09T02:43:48;16.40;99.90
957;DHT22;465;48.802;9.224;2022-09-09T02:46:28;16.30;99.90
957;DHT22;465;48.802;9.224;2022-09-09T02:49:00;16.30;99.90
957;DHT22;465;48.802;9.224;2022-09-09T02:51:34;16.30;99.90
957;DHT22;465;48.802;9.224;2022-09-09T02:54:10;16.20;99.90
957;DHT22;465;48.802;9.224;2022-09-09T02:56:42;16.30;99.90
957;DHT22;465;48.802;9.224;2022-09-09T02:59:10;16.30;99.90
957;DHT22;465;48.802;9.224;2022-09-09T03:01:38;16.30;99.90
957;DHT22;465;48.802;9.224;2022-09-09T03:04:05;16.30;99.90
957;DHT22;465;48.802;9.224;2022-09-09T03:06:32;16.30;99.90
957;DHT22;465;48.802;9.224;2022-09-09T03:08:59;16.30;99.90
957;DHT22;465;48.802;9.224;2022-09-09T03:11:27;16.30;99.90
957;DHT22;465;48.802;9.224;2022-09-09T03:13:54;16.30;99.90
957;DHT22;465;48.802;9.224;2022-09-09T03:16:21;16.30;99.90
957;DHT22;465;48.802;9.224;2022-09-09T03:18:49;16.40;99.90
957;DHT22;465;48.802;9.224;2022-09-09T03:21:16;16.50;99.90
957;DHT22;465;48.802;9.224;2022-09-09T03:23:43;16.50;99.90
957;DHT22;465;48.802;9.224;2022-09-09T03:26:10;16.60;99.90
957;DHT22;465;48.802;9.224;2022-09-09T03:28:37;16.50;99.90
957;DHT22;465;48.802;9.224;2022-09-09T03:31:05;16.50;99.90
957;DHT22;465;48.802;9.224;2022-09-09T03:33:35;16.40;99.90
957;DHT22;465;48.802;9.224;2022-09-09T03:36:04;16.40;99.90
957;DHT22;465;48.802;9.224;2022-09-09T03:38:32;16.30;99.90
957;DHT22;465;48.802;9.224;2022-09-09T03:41:00;16.30;99.90
957;DHT22;465;48.802;9.224;2022-09-09T03:43:28;16.30;99.90
957;DHT22;465;48.802;9.224;2022-09-09T03:45:55;16.30;99.90
957;DHT22;465;48.802;9.224;2022-09-09T03:48:22;16.30;99.90
957;DHT22;465;48.802;9.224;2022-09-09T03:50:50;16.20;99.90
957;DHT22;465;48.802;9.224;2022-09-09T03:53:21;16.20;99.90
957;DHT22;465;48.802;9.224;2022-09-09T03:55:49;16.30;99.90
957;DHT22;465;48.802;9.224;2022-09-09T03:58:16;16.30;99.90
957;DHT22;465;48.802;9.224;2022-09-09T04:00:44;16.30;99.90
957;DHT22;465;48.802;9.224;2022-09-09T04:03:18;16.30;99.90
957;DHT22;465;48.802;9.224;2022-09-09T04:05:48;16.30;99.90
957;DHT22;465;48.802;9.224;2022-09-09T04:08:15;16.20;99.90
957;DHT22;465;48.802;9.224;2022-09-09T04:10:44;16.20;99.90
957;DHT22;465;48.802;9.224;2022-09-09T04:13:11;16.20;99.90
957;DHT22;465;48.802;9.224;2022-09-09T04:15:39;16.10;99.90
957;DHT22;465;48.802;9.224;2022-09-09T04:18:06;16.20;99.90
957;DHT22;465;48.802;9.224;2022-09-09T04:20:33;16.10;99.90
957;DHT22;465;48.802;9.224;2022-09-09T04:22:59;16.00;99.90
957;DHT22;465;48.802;9.224;2022-09-09T04:25:26;16.00;99.90
957;DHT22;465;48.802;9.224;2022-09-09T04:27:54;15.90;99.90
957;DHT22;465;48.802;9.224;2022-09-09T04:30:21;16.00;99.90
957;DHT22;465;48.802;9.224;2022-09-09T04:32:48;16.00;99.90
957;DHT22;465;48.802;9.224;2022-09-09T04:35:15;16.00;99.90
957;DHT22;465;48.802;9.224;2022-09-09T04:37:42;16.00;99.90
957;DHT22;465;48.802;9.224;2022-09-09T04:40:10;16.00;99.90
957;DHT22;465;48.802;9.224;2022-09-09T04:42:37;15.90;99.90
957;DHT22;465;48.802;9.224;2022-09-09T04:45:06;16.00;99.90
957;DHT22;465;48.802;9.224;2022-09-09T04:47:36;16.00;99.90
957;DHT22;465;48.802;9.224;2022-09-09T04:50:03;16.00;99.90
957;DHT22;465;48.802;9.224;2022-09-09T04:52:30;16.00;99.90
957;DHT22;465;48.802;9.224;2022-09-09T04:54:57;16.10;99.90
957;DHT22;465;48.802;9.224;2022-09-09T04:57:24;16.00;99.90
957;DHT22;465;48.802;9.224;2022-09-09T04:59:51;16.10;99.90
957;DHT22;465;48.802;9.224;2022-09-09T05:02:19;16.00;99.90
957;DHT22;465;48.802;9.224;2022-09-09T05:04:45;15.90;99.90
957;DHT22;465;48.802;9.224;2022-09-09T05:07:12;15.90;99.90
957;DHT22;465;48.802;9.224;2022-09-09T05:09:40;15.80;99.90
957;DHT22;465;48.802;9.224;2022-09-09T05:12:06;15.80;99.90
957;DHT22;465;48.802;9.224;2022-09-09T05:14:33;15.80;99.90
957;DHT22;465;48.802;9.224;2022-09-09T05:17:01;15.80;99.90
957;DHT22;465;48.802;9.224;2022-09-09T05:19:29;15.80;99.90
957;DHT22;465;48.802;9.224;2022-09-09T05:21:56;15.80;99.90
957;DHT22;465;48.802;9.224;2022-09-09T05:24:23;15.90;99.90
957;DHT22;465;48.802;9.224;2022-09-09T05:26:50;16.10;99.90
957;DHT22;465;48.802;9.224;2022-09-09T05:29:17;16.20;99.90
957;DHT22;465;48.802;9.224;2022-09-09T05:31:44;16.40;99.90
957;DHT22;465;48.802;9.224;2022-09-09T05:34:12;16.40;99.90
957;DHT22;465;48.802;9.224;2022-09-09T05:36:40;16.50;99.90
957;DHT22;465;48.802;9.224;2022-09-09T05:39:07;16.60;99.90
957;DHT22;465;48.802;9.224;2022-09-09T05:41:34;16.60;99.90
957;DHT22;465;48.802;9.224;2022-09-09T05:44:01;16.70;99.90
957;DHT22;465;48.802;9.224;2022-09-09T05:46:29;16.80;99.90
957;DHT22;465;48.802;9.224;2022-09-09T05:48:55;16.90;99.90
957;DHT22;465;48.802;9.224;2022-09-09T05:51:25;16.90;99.90
957;DHT22;465;48.802;9.224;2022-09-09T05:53:54;17.00;99.90
957;DHT22;465;48.802;9.224;2022-09-09T05:56:25;17.10;99.90
957;DHT22;465;48.802;9.224;2022-09-09T05:58:52;17.10;99.90
957;DHT22;465;48.802;9.224;2022-09-09T06:01:21;17.20;99.90
957;DHT22;465;48.802;9.224;2022-09-09T06:03:49;17.20;99.90
957;DHT22;465;48.802;9.224;2022-09-09T06:06:18;17.20;99.90
957;DHT22;465;48.802;9.224;2022-09-09T06:08:46;17.20;99.90
957;DHT22;465;48.802;9.224;2022-09-09T06:11:16;17.30;99.90
957;DHT22;465;48.802;9.224;2022-09-09T06:13:43;17.30;99.90
957;DHT22;465;48.802;9.224;2022-09-09T06:16:11;17.40;99.90
957;DHT22;465;48.802;9.224;2022-09-09T06:18:38;17.50;99.90
957;DHT22;465;48.802;9.224;2022-09-09T06:21:08;17.40;99.90
957;DHT22;465;48.802;9.224;2022-09-09T06:23:35;17.50;99.90
957;DHT22;465;48.802;9.224;2022-09-09T06:26:04;17.60;99.90
957;DHT22;465;48.802;9.224;2022-09-09T06:28:32;17.60;99.90
957;DHT22;465;48.802;9.224;2022-09-09T06:31:00;17.80;99.90
957;DHT22;465;48.802;9.224;2022-09-09T06:33:30;17.80;99.90
957;DHT22;465;48.802;9.224;2022-09-09T06:35:58;17.90;99.90
957;DHT22;465;48.802;9.224;2022-09-09T06:38:24;18.00;99.90
957;DHT22;465;48.802;9.224;2022-09-09T06:40:52;18.00;99.90
957;DHT22;465;48.802;9.224;2022-09-09T06:43:20;18.20;99.90
957;DHT22;465;48.802;9.224;2022-09-09T06:45:54;18.30;99.90
957;DHT22;465;48.802;9.224;2022-09-09T06:48:21;18.40;99.90
957;DHT22;465;48.802;9.224;2022-09-09T06:50:48;18.50;99.90
957;DHT22;465;48.802;9.224;2022-09-09T06:53:16;18.60;99.90
957;DHT22;465;48.802;9.224;2022-09-09T06:55:44;18.60;99.90
957;DHT22;465;48.802;9.224;2022-09-09T06:58:11;18.60;99.90
957;DHT22;465;48.802;9.224;2022-09-09T07:00:38;18.60;99.90
957;DHT22;465;48.802;9.224;2022-09-09T07:03:06;18.70;99.90
957;DHT22;465;48.802;9.224;2022-09-09T07:05:33;18.60;99.90
957;DHT22;465;48.802;9.224;2022-09-09T07:07:59;18.60;99.90
957;DHT22;465;48.802;9.224;2022-09-09T07:10:26;18.70;99.90
957;DHT22;465;48.802;9.224;2022-09-09T07:12:53;18.80;99.90
957;DHT22;465;48.802;9.224;2022-09-09T07:15:20;18.90;99.90
957;DHT22;465;48.802;9.224;2022-09-09T07:17:46;19.10;99.90
957;DHT22;465;48.802;9.224;2022-09-09T07:20:15;19.30;99.90
957;DHT22;465;48.802;9.224;2022-09-09T07:22:42;19.40;99.90
957;DHT22;465;48.802;9.224;2022-09-09T07:25:09;19.60;99.90
957;DHT22;465;48.802;9.224;2022-09-09T07:27:35;19.70;99.90
957;DHT22;465;48.802;9.224;2022-09-09T07:30:03;19.70;99.90
957;DHT22;465;48.802;9.224;2022-09-09T07:32:30;19.90;99.90
957;DHT22;465;48.802;9.224;2022-09-09T07:34:57;19.90;99.90
957;DHT22;465;48.802;9.224;2022-09-09T07:37:25;20.00;99.90
957;DHT22;465;48.802;9.224;2022-09-09T07:39:52;20.20;99.90
957;DHT22;465;48.802;9.224;2022-09-09T07:42:19;20.40;99.90
957;DHT22;465;48.802;9.224;2022-09-09T07:44:45;20.50;99.90
957;DHT22;465;48.802;9.224;2022-09-09T07:47:12;20.70;99.90
957;DHT22;465;48.802;9.224;2022-09-09T07:49:39;21.10;99.90
957;DHT22;465;48.802;9.224;2022-09-09T07:52:06;22.20;97.80
957;DHT22;465;48.802;9.224;2022-09-09T07:54:34;22.10;96.60
957;DHT22;465;48.802;9.224;2022-09-09T07:57:01;22.20;96.20
957;DHT22;465;48.802;9.224;2022-09-09T07:59:29;21.80;96.00
957;DHT22;465;48.802;9.224;2022-09-09T08:01:56;21.60;96.80
957;DHT22;465;48.802;9.224;2022-09-09T08:04:25;21.20;97.20
957;DHT22;465;48.802;9.224;2022-09-09T08:06:55;21.00;97.90
957;DHT22;465;48.802;9.224;2022-09-09T08:09:24;21.10;98.40
957;DHT22;465;48.802;9.224;2022-09-09T08:11:54;21.30;98.00
957;DHT22;465;48.802;9.224;2022-09-09T08:14:22;21.50;97.50
957;DHT22;465;48.802;9.224;2022-09-09T08:16:49;21.60;97.20
957;DHT22;465;48.802;9.224;2022-09-09T08:19:16;21.60;97.80
957;DHT22;465;48.802;9.224;2022-09-09T08:21:44;21.80;97.40
957;DHT22;465;48.802;9.224;2022-09-09T08:24:11;22.10;96.50
957;DHT22;465;48.802;9.224;2022-09-09T08:26:41;22.30;96.00
957;DHT22;465;48.802;9.224;2022-09-09T08:29:10;22.70;95.60
957;DHT22;465;48.802;9.224;2022-09-09T08:31:40;23.80;93.80
957;DHT22;465;48.802;9.224;2022-09-09T08:34:08;24.00;91.90
957;DHT22;465;48.802;9.224;2022-09-09T08:36:38;25.00;91.40
957;DHT22;465;48.802;9.224;2022-09-09T08:39:06;26.20;89.00
957;DHT22;465;48.802;9.224;2022-09-09T08:42:07;27.80;79.80
957;DHT22;465;48.802;9.224;2022-09-09T08:44:47;29.60;69.60
957;DHT22;465;48.802;9.224;2022-09-09T08:47:23;30.40;65.00
957;DHT22;465;48.802;9.224;2022-09-09T08:50:08;30.40;60.20
957;DHT22;465;48.802;9.224;2022-09-09T08:52:44;30.50;59.30
957;DHT22;465;48.802;9.224;2022-09-09T08:55:20;29.10;59.00
957;DHT22;465;48.802;9.224;2022-09-09T08:57:50;28.40;61.40
957;DHT22;465;48.802;9.224;2022-09-09T09:00:19;26.80;65.80
957;DHT22;465;48.802;9.224;2022-09-09T09:02:53;26.20;67.90
957;DHT22;465;48.802;9.224;2022-09-09T09:05:28;26.10;68.30
957;DHT22;465;48.802;9.224;2022-09-09T09:08:03;27.20;67.20
957;DHT22;465;48.802;9.224;2022-09-09T09:10:45;28.50;62.10
957;DHT22;465;48.802;9.224;2022-09-09T09:13:15;29.40;59.30
957;DHT22;465;48.802;9.224;2022-09-09T09:15:52;27.40;58.30
957;DHT22;465;48.802;9.224;2022-09-09T09:18:20;25.50;62.80
957;DHT22;465;48.802;9.224;2022-09-09T09:20:51;24.70;66.30
957;DHT22;465;48.802;9.224;2022-09-09T09:23:23;24.10;68.80
957;DHT22;465;48.802;9.224;2022-09-09T09:25:52;23.50;70.20
957;DHT22;465;48.802;9.224;2022-09-09T09:28:24;23.30;71.90
957;DHT22;465;48.802;9.224;2022-09-09T09:30:55;23.20;73.40
957;DHT22;465;48.802;9.224;2022-09-09T09:33:27;23.00;74.40
957;DHT22;465;48.802;9.224;2022-09-09T09:35:56;22.60;78.90
957;DHT22;465;48.802;9.224;2022-09-09T09:38:26;22.10;82.20
957;DHT22;465;48.802;9.224;2022-09-09T09:40:55;21.70;84.90
957;DHT22;465;48.802;9.224;2022-09-09T09:43:26;21.20;85.60
957;DHT22;465;48.802;9.224;2022-09-09T09:45:55;20.40;90.10
957;DHT22;465;48.802;9.224;2022-09-09T09:48:23;20.20;90.80
957;DHT22;465;48.802;9.224;2022-09-09T09:50:52;21.90;86.30
957;DHT22;465;48.802;9.224;2022-09-09T09:53:23;24.60;81.40
957;DHT22;465;48.802;9.224;2022-09-09T09:55:54;27.00;71.40
957;DHT22;465;48.802;9.224;2022-09-09T09:58:21;27.60;64.40
957;DHT22;465;48.802;9.224;2022-09-09T10:00:48;28.30;62.30
957;DHT22;465;48.802;9.224;2022-09-09T10:03:25;29.30;61.40
957;DHT22;465;48.802;9.224;2022-09-09T10:05:53;29.40;56.20
957;DHT22;465;48.802;9.224;2022-09-09T10:08:20;29.90;56.90
957;DHT22;465;48.802;9.224;2022-09-09T10:13:43;31.10;53.60
957;DHT22;465;48.802;9.224;2022-09-09T10:16:25;31.20;53.90
957;DHT22;465;48.802;9.224;2022-09-09T10:18:59;32.50;51.10
957;DHT22;465;48.802;9.224;2022-09-09T10:21:42;32.30;51.10
957;DHT22;465;48.802;9.224;2022-09-09T10:24:23;32.70;49.00
957;DHT22;465;48.802;9.224;2022-09-09T10:26:58;33.00;50.30
957;DHT22;465;48.802;9.224;2022-09-09T10:29:38;33.30;48.40
957;DHT22;465;48.802;9.224;2022-09-09T10:32:30;31.90;50.50
957;DHT22;465;48.802;9.224;2022-09-09T10:35:08;32.60;51.10
957;DHT22;465;48.802;9.224;2022-09-09T10:37:49;32.20;51.00
957;DHT22;465;48.802;9.224;2022-09-09T10:40:25;32.90;50.70
957;DHT22;465;48.802;9.224;2022-09-09T10:43:01;34.10;49.60
957;DHT22;465;48.802;9.224;2022-09-09T10:45:37;34.20;48.10
957;DHT22;465;48.802;9.224;2022-09-09T10:48:19;34.30;46.60
957;DHT22;465;48.802;9.224;2022-09-09T10:50:56;34.10;47.00
957;DHT22;465;48.802;9.224;2022-09-09T10:53:41;33.50;46.90
957;DHT22;465;48.802;9.224;2022-09-09T10:56:13;32.90;48.50
957;DHT22;465;48.802;9.224;2022-09-09T10:58:46;32.20;49.60
957;DHT22;465;48.802;9.224;2022-09-09T11:01:29;29.80;52.50
957;DHT22;465;48.802;9.224;2022-09-09T11:04:09;27.90;56.60
957;DHT22;465;48.802;9.224;2022-09-09T11:06:55;26.60;59.20
957;DHT22;465;48.802;9.224;2022-09-09T11:09:24;27.00;60.00
957;DHT22;465;48.802;9.224;2022-09-09T11:11:53;28.80;58.10
957;DHT22;465;48.802;9.224;2022-09-09T11:14:26;30.60;55.00
957;DHT22;465;48.802;9.224;2022-09-09T11:17:00;30.80;53.10
957;DHT22;465;48.802;9.224;2022-09-09T11:19:34;29.50;54.30
957;DHT22;465;48.802;9.224;2022-09-09T11:22:05;28.30;56.30
957;DHT22;465;48.802;9.224;2022-09-09T11:24:39;27.90;55.50
957;DHT22;465;48.802;9.224;2022-09-09T11:27:10;27.40;54.20
957;DHT22;465;48.802;9.224;2022-09-09T11:35:52;25.60;57.60
957;DHT22;465;48.802;9.224;2022-09-09T11:38:27;25.20;57.60
957;DHT22;465;48.802;9.224;2022-09-09T11:40:56;24.90;58.10
957;DHT22;465;48.802;9.224;2022-09-09T11:43:28;24.70;58.70
957;DHT22;465;48.802;9.224;2022-09-09T11:45:58;24.60;59.30
957;DHT22;465;48.802;9.224;2022-09-09T11:48:31;24.50;60.10
957;DHT22;465;48.802;9.224;2022-09-09T11:51:02;24.20;60.60
957;DHT22;465;48.802;9.224;2022-09-09T11:53:32;23.90;61.70
957;DHT22;465;48.802;9.224;2022-09-09T11:56:07;23.90;62.60
957;DHT22;465;48.802;9.224;2022-09-09T11:58:38;23.60;62.60
957;DHT22;465;48.802;9.224;2022-09-09T12:01:25;23.70;63.70
957;DHT22;465;48.802;9.224;2022-09-09T12:04:05;24.00;63.30
957;DHT22;465;48.802;9.224;2022-09-09T12:06:42;24.30;62.60
957;DHT22;465;48.802;9.224;2022-09-09T12:09:19;24.40;61.20
957;DHT22;465;48.802;9.224;2022-09-09T12:11:50;25.40;59.50
957;DHT22;465;48.802;9.224;2022-09-09T12:14:21;27.80;54.90
957;DHT22;465;48.802;9.224;2022-09-09T12:16:48;29.60;51.80
957;DHT22;465;48.802;9.224;2022-09-09T12:19:19;30.20;48.80
957;DHT22;465;48.802;9.224;2022-09-09T12:21:51;29.00;49.20
957;DHT22;465;48.802;9.224;2022-09-09T12:24:27;27.90;51.20
957;DHT22;465;48.802;9.224;2022-09-09T12:27:04;28.10;52.10
957;DHT22;465;48.802;9.224;2022-09-09T12:29:41;27.40;51.10
957;DHT22;465;48.802;9.224;2022-09-09T12:32:22;27.30;52.80
957;DHT22;465;48.802;9.224;2022-09-09T12:35:12;29.10;50.40
957;DHT22;465;48.802;9.224;2022-09-09T12:38:05;30.60;48.40
957;DHT22;465;48.802;9.224;2022-09-09T12:40:59;32.40;46.10
957;DHT22;465;48.802;9.224;2022-09-09T12:43:44;33.40;43.00
957;DHT22;465;48.802;9.224;2022-09-09T12:46:24;33.20;41.50
957;DHT22;465;48.802;9.224;2022-09-09T12:48:54;31.40;41.80
957;DHT22;465;48.802;9.224;2022-09-09T12:51:26;30.40;44.50
957;DHT22;465;48.802;9.224;2022-09-09T12:53:56;29.50;45.20
957;DHT22;465;48.802;9.224;2022-09-09T12:56:28;28.90;46.50
957;DHT22;465;48.802;9.224;2022-09-09T12:58:57;28.20;47.50
957;DHT22;465;48.802;9.224;2022-09-09T13:01:31;26.40;50.80
957;DHT22;465;48.802;9.224;2022-09-09T13:03:59;26.10;53.20
957;DHT22;465;48.802;9.224;2022-09-09T13:06:27;25.90;53.70
957;DHT22;465;48.802;9.224;2022-09-09T13:08:55;26.60;53.50
957;DHT22;465;48.802;9.224;2022-09-09T13:11:27;27.20;52.50
957;DHT22;465;48.802;9.224;2022-09-09T13:13:56;28.30;51.10
957;DHT22;465;48.802;9.224;2022-09-09T13:16:26;28.10;50.10
957;DHT22;465;48.802;9.224;2022-09-09T13:18:56;27.30;51.40
957;DHT22;465;48.802;9.224;2022-09-09T13:21:32;25.40;54.10
957;DHT22;465;48.802;9.224;2022-09-09T13:24:00;25.10;55.90
957;DHT22;465;48.802;9.224;2022-09-09T13:26:30;24.60;56.10
957;DHT22;465;48.802;9.224;2022-09-09T13:29:08;24.30;57.60
957;DHT22;465;48.802;9.224;2022-09-09T13:31:42;24.30;57.90
957;DHT22;465;48.802;9.224;2022-09-09T13:34:12;24.70;57.60
957;DHT22;465;48.802;9.224;2022-09-09T13:36:40;24.80;57.40
957;DHT22;465;48.802;9.224;2022-09-09T13:39:15;25.40;56.80
957;DHT22;465;48.802;9.224;2022-09-09T13:41:45;25.80;56.60
957;DHT22;465;48.802;9.224;2022-09-09T13:44:19;25.90;55.70
957;DHT22;465;48.802;9.224;2022-09-09T13:47:00;26.30;55.10
957;DHT22;465;48.802;9.224;2022-09-09T13:49:29;26.30;54.10
957;DHT22;465;48.802;9.224;2022-09-09T13:52:09;25.30;54.60
957;DHT22;465;48.802;9.224;2022-09-09T13:54:36;24.50;56.00
957;DHT22;465;48.802;9.224;2022-09-09T13:57:05;24.30;56.50
957;DHT22;465;48.802;9.224;2022-09-09T13:59:32;23.80;56.20
957;DHT22;465;48.802;9.224;2022-09-09T14:01:59;23.70;56.70
957;DHT22;465;48.802;9.224;2022-09-09T14:04:27;23.70;57.00
957;DHT22;465;48.802;9.224;2022-09-09T14:06:56;24.00;56.40
957;DHT22;465;48.802;9.224;2022-09-09T14:09:24;24.70;56.20
957;DHT22;465;48.802;9.224;2022-09-09T14:11:51;24.90;55.10
957;DHT22;465;48.802;9.224;2022-09-09T14:14:19;25.10;55.00
957;DHT22;465;48.802;9.224;2022-09-09T14:16:46;25.00;54.70
957;DHT22;465;48.802;9.224;2022-09-09T14:19:13;24.30;56.30
957;DHT22;465;48.802;9.224;2022-09-09T14:21:40;24.50;56.30
957;DHT22;465;48.802;9.224;2022-09-09T14:24:06;24.50;55.70
957;DHT22;465;48.802;9.224;2022-09-09T14:26:33;24.80;55.00
957;DHT22;465;48.802;9.224;2022-09-09T14:29:00;24.70;54.80
957;DHT22;465;48.802;9.224;2022-09-09T14:31:28;24.80;54.80
957;DHT22;465;48.802;9.224;2022-09-09T14:33:55;25.10;54.10
957;DHT22;465;48.802;9.224;2022-09-09T14:36:22;25.10;54.50
957;DHT22;465;48.802;9.224;2022-09-09T14:38:49;25.00;54.50
957;DHT22;465;48.802;9.224;2022-09-09T14:41:18;24.90;54.90
957;DHT22;465;48.802;9.224;2022-09-09T14:43:47;24.80;54.90
957;DHT22;465;48.802;9.224;2022-09-09T14:46:16;25.10;54.80
957;DHT22;465;48.802;9.224;2022-09-09T14:48:45;25.10;54.50
957;DHT22;465;48.802;9.224;2022-09-09T14:51:15;24.70;54.70
957;DHT22;465;48.802;9.224;2022-09-09T14:53:42;24.70;54.80
957;DHT22;465;48.802;9.224;2022-09-09T14:56:12;24.90;55.20
957;DHT22;465;48.802;9.224;2022-09-09T14:58:39;24.90;54.70
957;DHT22;465;48.802;9.224;2022-09-09T15:01:07;24.70;54.60
957;DHT22;465;48.802;9.224;2022-09-09T15:03:35;24.60;55.10
957;DHT22;465;48.802;9.224;2022-09-09T15:06:08;25.00;54.90
957;DHT22;465;48.802;9.224;2022-09-09T15:08:35;25.80;54.00
957;DHT22;465;48.802;9.224;2022-09-09T15:11:03;25.90;52.40
957;DHT22;465;48.802;9.224;2022-09-09T15:13:30;25.20;52.40
957;DHT22;465;48.802;9.224;2022-09-09T15:16:03;25.10;53.20
957;DHT22;465;48.802;9.224;2022-09-09T15:18:30;25.00;53.60
957;DHT22;465;48.802;9.224;2022-09-09T15:20:58;24.70;53.70
957;DHT22;465;48.802;9.224;2022-09-09T15:23:26;24.50;53.70
957;DHT22;465;48.802;9.224;2022-09-09T15:25:54;24.40;54.20
957;DHT22;465;48.802;9.224;2022-09-09T15:28:22;24.20;54.60
957;DHT22;465;48.802;9.224;2022-09-09T15:30:49;24.10;55.30
957;DHT22;465;48.802;9.224;2022-09-09T15:33:17;24.00;55.10
957;DHT22;465;48.802;9.224;2022-09-09T15:35:43;23.90;55.50
957;DHT22;465;48.802;9.224;2022-09-09T15:38:11;23.90;55.60
957;DHT22;465;48.802;9.224;2022-09-09T15:40:40;24.00;55.60
957;DHT22;465;48.802;9.224;2022-09-09T15:43:07;24.20;55.50
957;DHT22;465;48.802;9.224;2022-09-09T15:45:34;24.30;55.40
957;DHT22;465;48.802;9.224;2022-09-09T15:48:02;24.30;55.90
957;DHT22;465;48.802;9.224;2022-09-09T15:50:29;24.20;55.90
957;DHT22;465;48.802;9.224;2022-09-09T15:52:56;24.00;56.10
957;DHT22;465;48.802;9.224;2022-09-09T15:55:23;23.80;56.50
957;DHT22;465;48.802;9.224;2022-09-09T15:57:52;23.70;56.80
957;DHT22;465;48.802;9.224;2022-09-09T16:00:20;23.60;57.30
957;DHT22;465;48.802;9.224;2022-09-09T16:02:48;23.50;57.50
957;DHT22;465;48.802;9.224;2022-09-09T16:05:15;23.40;57.70
957;DHT22;465;48.802;9.224;2022-09-09T16:07:41;23.50;57.90
957;DHT22;465;48.802;9.224;2022-09-09T16:10:10;23.50;57.80
957;DHT22;465;48.802;9.224;2022-09-09T16:12:39;23.50;57.90
957;DHT22;465;48.802;9.224;2022-09-09T16:15:07;23.40;57.70
957;DHT22;465;48.802;9.224;2022-09-09T16:17:34;23.40;58.10
957;DHT22;465;48.802;9.224;2022-09-09T16:20:04;23.20;56.80
957;DHT22;465;48.802;9.224;2022-09-09T16:22:34;23.10;56.90
957;DHT22;465;48.802;9.224;2022-09-09T16:25:02;23.00;57.40
957;DHT22;465;48.802;9.224;2022-09-09T16:27:28;23.00;57.80
957;DHT22;465;48.802;9.224;2022-09-09T16:29:55;23.00;58.20
957;DHT22;465;48.802;9.224;2022-09-09T16:32:23;23.00;58.10
957;DHT22;465;48.802;9.224;2022-09-09T16:34:50;22.90;58.30
957;DHT22;465;48.802;9.224;2022-09-09T16:37:17;22.90;59.00
957;DHT22;465;48.802;9.224;2022-09-09T16:39:44;22.80;59.20
957;DHT22;465;48.802;9.224;2022-09-09T16:42:11;22.80;59.80
957;DHT22;465;48.802;9.224;2022-09-09T16:44:38;22.70;60.70
957;DHT22;465;48.802;9.224;2022-09-09T16:47:05;22.60;61.70
957;DHT22;465;48.802;9.224;2022-09-09T16:49:33;22.40;62.40
957;DHT22;465;48.802;9.224;2022-09-09T16:52:03;22.20;63.20
957;DHT22;465;48.802;9.224;2022-09-09T16:54:30;22.10;63.50
957;DHT22;465;48.802;9.224;2022-09-09T16:56:57;22.10;63.70
957;DHT22;465;48.802;9.224;2022-09-09T16:59:24;22.00;63.30
957;DHT22;465;48.802;9.224;2022-09-09T17:01:51;22.00;63.10
957;DHT22;465;48.802;9.224;2022-09-09T17:04:20;21.90;65.20
957;DHT22;465;48.802;9.224;2022-09-09T17:06:52;21.70;66.30
957;DHT22;465;48.802;9.224;2022-09-09T17:09:19;21.60;67.30